sensor_id;sensor_type;location;lat;lon;timestamp;pressure;altitude;pressure_sealevel;temperature;humidity
69153;BME280;56261;51.580;4.578;2022-07-23T00:00:45;102050.97;;;15.80;89.60
69153;BME280;56261;51.580;4.578;2022-07-23T00:03:12;102042.03;;;15.88;89.79
69153;BME280;56261;51.580;4.578;2022-07-23T00:05:38;102039.19;;;15.81;89.87
69153;BME280;56261;51.580;4.578;2022-07-23T00:08:04;102040.25;;;15.72;89.90
69153;BME280;56261;51.580;4.578;2022-07-23T00:10:29;102035.16;;;15.69;90.27
69153;BME280;56261;51.580;4.578;2022-07-23T00:12:55;102033.38;;;15.61;90.66
69153;BME280;56261;51.580;4.578;2022-07-23T00:15:20;102042.13;;;15.55;90.99
69153;BME280;56261;51.580;4.578;2022-07-23T00:17:48;102036.22;;;15.60;90.99
69153;BME280;56261;51.580;4.578;2022-07-23T00:20:14;102041.09;;;15.72;91.26
69153;BME280;56261;51.580;4.578;2022-07-23T00:22:50;102042.94;;;15.64;91.13
69153;BME280;56261;51.580;4.578;2022-07-23T00:25:15;102040.25;;;15.64;90.96
69153;BME280;56261;51.580;4.578;2022-07-23T00:27:41;102050.00;;;15.73;91.26
69153;BME280;56261;51.580;4.578;2022-07-23T00:30:07;102048.47;;;15.62;91.37
69153;BME280;56261;51.580;4.578;2022-07-23T00:32:45;102039.53;;;15.78;91.59
69153;BME280;56261;51.580;4.578;2022-07-23T00:35:10;102037.03;;;15.68;91.45
69153;BME280;56261;51.580;4.578;2022-07-23T00:37:35;102023.94;;;15.65;91.27
69153;BME280;56261;51.580;4.578;2022-07-23T00:40:01;102033.31;;;15.69;91.31
69153;BME280;56261;51.580;4.578;2022-07-23T00:42:26;102035.00;;;15.70;91.56
69153;BME280;56261;51.580;4.578;2022-07-23T00:44:52;102027.47;;;15.66;91.75
69153;BME280;56261;51.580;4.578;2022-07-23T00:47:17;102019.22;;;15.67;91.10
69153;BME280;56261;51.580;4.578;2022-07-23T00:49:42;102013.50;;;15.62;92.41
69153;BME280;56261;51.580;4.578;2022-07-23T00:52:08;102003.25;;;15.66;91.53
69153;BME280;56261;51.580;4.578;2022-07-23T00:54:33;102005.28;;;15.72;91.21
69153;BME280;56261;51.580;4.578;2022-07-23T00:56:59;101992.59;;;15.81;90.47
69153;BME280;56261;51.580;4.578;2022-07-23T00:59:24;101999.91;;;15.72;90.21
69153;BME280;56261;51.580;4.578;2022-07-23T01:01:50;101996.31;;;15.80;89.78
69153;BME280;56261;51.580;4.578;2022-07-23T01:04:15;101996.03;;;15.58;89.88
69153;BME280;56261;51.580;4.578;2022-07-23T01:06:42;101998.59;;;15.51;90.39
69153;BME280;56261;51.580;4.578;2022-07-23T01:09:08;101998.59;;;15.51;90.87
69153;BME280;56261;51.580;4.578;2022-07-23T01:11:35;102001.03;;;15.69;90.93
69153;BME280;56261;51.580;4.578;2022-07-23T01:14:15;102001.03;;;15.69;90.06
69153;BME280;56261;51.580;4.578;2022-07-23T01:16:42;102005.28;;;15.55;90.25
69153;BME280;56261;51.580;4.578;2022-07-23T01:19:08;101999.59;;;15.59;90.18
69153;BME280;56261;51.580;4.578;2022-07-23T01:21:39;101996.94;;;15.42;90.65
69153;BME280;56261;51.580;4.578;2022-07-23T01:24:05;101998.25;;;15.54;90.55
69153;BME280;56261;51.580;4.578;2022-07-23T01:26:31;102000.94;;;15.54;90.08
69153;BME280;56261;51.580;4.578;2022-07-23T01:28:56;102001.47;;;15.50;90.89
69153;BME280;56261;51.580;4.578;2022-07-23T01:31:22;101998.94;;;15.56;90.57
69153;BME280;56261;51.580;4.578;2022-07-23T01:33:48;101983.31;;;15.52;90.36
69153;BME280;56261;51.580;4.578;2022-07-23T01:36:14;101995.38;;;15.56;89.94
69153;BME280;56261;51.580;4.578;2022-07-23T01:38:39;101999.72;;;15.65;89.67
69153;BME280;56261;51.580;4.578;2022-07-23T01:41:04;101996.03;;;15.58;90.33
69153;BME280;56261;51.580;4.578;2022-07-23T01:43:30;101996.22;;;15.56;91.43
69153;BME280;56261;51.580;4.578;2022-07-23T01:45:55;101999.59;;;15.59;91.82
69153;BME280;56261;51.580;4.578;2022-07-23T01:48:21;101989.00;;;15.57;91.27
69153;BME280;56261;51.580;4.578;2022-07-23T01:50:47;101999.41;;;15.60;91.64
69153;BME280;56261;51.580;4.578;2022-07-23T01:53:13;101997.38;;;15.62;91.53
69153;BME280;56261;51.580;4.578;2022-07-23T01:55:39;102000.59;;;15.57;91.38
69153;BME280;56261;51.580;4.578;2022-07-23T01:58:05;102008.81;;;15.56;91.89
69153;BME280;56261;51.580;4.578;2022-07-23T02:00:30;102011.38;;;15.49;91.76
69153;BME280;56261;51.580;4.578;2022-07-23T02:02:56;102011.72;;;15.46;91.93
69153;BME280;56261;51.580;4.578;2022-07-23T02:05:24;102004.38;;;15.32;91.92
69153;BME280;56261;51.580;4.578;2022-07-23T02:07:49;102007.09;;;15.24;92.01
69153;BME280;56261;51.580;4.578;2022-07-23T02:10:15;102001.19;;;15.28;92.81
69153;BME280;56261;51.580;4.578;2022-07-23T02:12:40;101999.03;;;15.24;92.88
69153;BME280;56261;51.580;4.578;2022-07-23T02:15:06;102015.00;;;15.09;93.30
69153;BME280;56261;51.580;4.578;2022-07-23T02:17:32;102007.44;;;15.21;93.26
69153;BME280;56261;51.580;4.578;2022-07-23T02:19:57;102000.38;;;15.20;93.30
69153;BME280;56261;51.580;4.578;2022-07-23T02:22:23;102002.22;;;15.19;93.35
69153;BME280;56261;51.580;4.578;2022-07-23T02:24:48;102007.94;;;15.16;93.28
69153;BME280;56261;51.580;4.578;2022-07-23T02:27:14;102006.41;;;15.13;93.73
69153;BME280;56261;51.580;4.578;2022-07-23T02:29:39;102015.19;;;15.07;93.59
69153;BME280;56261;51.580;4.578;2022-07-23T02:32:05;102007.97;;;15.00;94.34
69153;BME280;56261;51.580;4.578;2022-07-23T02:34:30;102020.56;;;14.99;94.98
69153;BME280;56261;51.580;4.578;2022-07-23T02:36:55;102010.16;;;14.96;94.39
69153;BME280;56261;51.580;4.578;2022-07-23T02:39:21;102012.19;;;14.94;94.70
69153;BME280;56261;51.580;4.578;2022-07-23T02:41:46;102017.03;;;14.82;95.08
69153;BME280;56261;51.580;4.578;2022-07-23T02:44:12;102015.03;;;14.84;94.79
69153;BME280;56261;51.580;4.578;2022-07-23T02:46:37;102017.41;;;14.87;94.60
69153;BME280;56261;51.580;4.578;2022-07-23T02:49:02;102012.84;;;14.80;95.00
69153;BME280;56261;51.580;4.578;2022-07-23T02:51:30;102020.09;;;14.63;96.07
69153;BME280;56261;51.580;4.578;2022-07-23T02:53:55;102017.22;;;14.72;96.39
69153;BME280;56261;51.580;4.578;2022-07-23T02:56:20;102020.75;;;14.81;96.54
69153;BME280;56261;51.580;4.578;2022-07-23T02:58:46;102023.28;;;14.83;96.33
69153;BME280;56261;51.580;4.578;2022-07-23T03:01:11;102025.94;;;14.66;96.46
69153;BME280;56261;51.580;4.578;2022-07-23T03:03:37;102020.06;;;14.79;95.92
69153;BME280;56261;51.580;4.578;2022-07-23T03:06:03;102011.03;;;14.80;95.83
69153;BME280;56261;51.580;4.578;2022-07-23T03:08:28;102018.22;;;14.80;95.21
69153;BME280;56261;51.580;4.578;2022-07-23T03:10:54;102028.28;;;14.86;95.00
69153;BME280;56261;51.580;4.578;2022-07-23T03:13:19;102032.16;;;14.83;94.49
69153;BME280;56261;51.580;4.578;2022-07-23T03:15:45;102017.53;;;14.78;94.55
69153;BME280;56261;51.580;4.578;2022-07-23T03:18:10;102017.41;;;14.87;94.06
69153;BME280;56261;51.580;4.578;2022-07-23T03:20:36;102023.94;;;14.68;94.45
69153;BME280;56261;51.580;4.578;2022-07-23T03:23:01;102034.84;;;14.67;94.54
69153;BME280;56261;51.580;4.578;2022-07-23T03:25:26;102035.50;;;14.69;94.69
69153;BME280;56261;51.580;4.578;2022-07-23T03:27:52;102032.50;;;14.72;94.45
69153;BME280;56261;51.580;4.578;2022-07-23T03:30:17;102038.19;;;14.77;94.78
69153;BME280;56261;51.580;4.578;2022-07-23T03:32:43;102043.91;;;14.74;94.43
69153;BME280;56261;51.580;4.578;2022-07-23T03:35:09;102039.19;;;14.60;95.10
69153;BME280;56261;51.580;4.578;2022-07-23T03:37:35;102043.56;;;14.61;95.57
69153;BME280;56261;51.580;4.578;2022-07-23T03:40:00;102044.75;;;14.58;96.33
69153;BME280;56261;51.580;4.578;2022-07-23T03:42:27;102052.13;;;14.64;96.02
69153;BME280;56261;51.580;4.578;2022-07-23T03:44:52;102046.22;;;14.52;95.33
69153;BME280;56261;51.580;4.578;2022-07-23T03:47:17;102047.38;;;14.50;95.65
69153;BME280;56261;51.580;4.578;2022-07-23T03:49:47;102051.09;;;14.49;95.99
69153;BME280;56261;51.580;4.578;2022-07-23T03:52:13;102050.72;;;14.44;96.11
69153;BME280;56261;51.580;4.578;2022-07-23T03:54:38;102052.75;;;14.33;96.38
69153;BME280;56261;51.580;4.578;2022-07-23T03:57:04;102053.34;;;14.19;96.86
69153;BME280;56261;51.580;4.578;2022-07-23T03:59:29;102053.19;;;14.21;97.29
69153;BME280;56261;51.580;4.578;2022-07-23T04:01:54;102056.75;;;14.29;97.34
69153;BME280;56261;51.580;4.578;2022-07-23T04:04:20;102056.06;;;14.27;97.29
69153;BME280;56261;51.580;4.578;2022-07-23T04:06:45;102062.13;;;14.29;97.21
69153;BME280;56261;51.580;4.578;2022-07-23T04:09:11;102055.41;;;14.25;97.41
69153;BME280;56261;51.580;4.578;2022-07-23T04:11:36;102056.41;;;14.32;97.69
69153;BME280;56261;51.580;4.578;2022-07-23T04:14:02;102055.75;;;14.39;97.76
69153;BME280;56261;51.580;4.578;2022-07-23T04:16:27;102055.09;;;14.37;97.72
69153;BME280;56261;51.580;4.578;2022-07-23T04:18:53;102056.25;;;14.34;98.01
69153;BME280;56261;51.580;4.578;2022-07-23T04:21:19;102060.13;;;14.31;98.09
69153;BME280;56261;51.580;4.578;2022-07-23T04:23:44;102056.25;;;14.34;97.85
69153;BME280;56261;51.580;4.578;2022-07-23T04:26:10;102063.31;;;14.43;97.95
69153;BME280;56261;51.580;4.578;2022-07-23T04:28:35;102066.84;;;14.52;98.07
69153;BME280;56261;51.580;4.578;2022-07-23T04:31:00;102056.09;;;14.44;98.28
69153;BME280;56261;51.580;4.578;2022-07-23T04:33:26;102062.81;;;14.48;98.29
69153;BME280;56261;51.580;4.578;2022-07-23T04:35:51;102066.03;;;14.51;97.77
69153;BME280;56261;51.580;4.578;2022-07-23T04:38:17;102059.97;;;14.49;97.52
69153;BME280;56261;51.580;4.578;2022-07-23T04:40:42;102065.50;;;14.48;97.58
69153;BME280;56261;51.580;4.578;2022-07-23T04:43:08;102069.03;;;14.48;97.45
69153;BME280;56261;51.580;4.578;2022-07-23T04:45:33;102063.84;;;14.55;96.97
69153;BME280;56261;51.580;4.578;2022-07-23T04:47:58;102056.47;;;14.57;96.64
69153;BME280;56261;51.580;4.578;2022-07-23T04:50:24;102066.91;;;14.68;97.16
69153;BME280;56261;51.580;4.578;2022-07-23T04:52:50;102077.97;;;14.65;96.90
69153;BME280;56261;51.580;4.578;2022-07-23T04:55:16;102070.41;;;14.69;96.74
69153;BME280;56261;51.580;4.578;2022-07-23T04:57:42;102073.78;;;14.71;96.76
69153;BME280;56261;51.580;4.578;2022-07-23T05:00:08;102070.94;;;14.81;96.05
69153;BME280;56261;51.580;4.578;2022-07-23T05:02:34;102066.91;;;14.93;95.52
69153;BME280;56261;51.580;4.578;2022-07-23T05:04:59;102066.91;;;15.01;94.66
69153;BME280;56261;51.580;4.578;2022-07-23T05:07:25;102067.59;;;15.11;94.14
69153;BME280;56261;51.580;4.578;2022-07-23T05:09:50;102069.94;;;15.23;93.19
69153;BME280;56261;51.580;4.578;2022-07-23T05:12:16;102067.03;;;15.24;92.89
69153;BME280;56261;51.580;4.578;2022-07-23T05:14:41;102062.84;;;15.22;92.48
69153;BME280;56261;51.580;4.578;2022-07-23T05:17:07;102068.06;;;15.23;92.17
69153;BME280;56261;51.580;4.578;2022-07-23T05:19:33;102068.19;;;15.46;92.08
69153;BME280;56261;51.580;4.578;2022-07-23T05:21:59;102063.09;;;15.60;91.53
69153;BME280;56261;51.580;4.578;2022-07-23T05:24:24;102059.28;;;15.54;90.77
69153;BME280;56261;51.580;4.578;2022-07-23T05:26:50;102064.72;;;15.29;91.21
69153;BME280;56261;51.580;4.578;2022-07-23T05:29:15;102074.28;;;15.32;92.12
69153;BME280;56261;51.580;4.578;2022-07-23T05:31:40;102077.44;;;15.52;91.95
69153;BME280;56261;51.580;4.578;2022-07-23T05:34:06;102067.97;;;15.64;91.22
69153;BME280;56261;51.580;4.578;2022-07-23T05:36:32;102074.69;;;15.68;90.99
69153;BME280;56261;51.580;4.578;2022-07-23T05:38:58;102078.41;;;15.67;91.25
69153;BME280;56261;51.580;4.578;2022-07-23T05:41:23;102089.13;;;15.84;91.06
69153;BME280;56261;51.580;4.578;2022-07-23T05:43:49;102084.28;;;15.71;90.75
69153;BME280;56261;51.580;4.578;2022-07-23T05:46:15;102086.13;;;15.79;91.47
69153;BME280;56261;51.580;4.578;2022-07-23T05:48:40;102082.31;;;16.04;91.00
69153;BME280;56261;51.580;4.578;2022-07-23T05:51:07;102076.47;;;15.92;90.39
69153;BME280;56261;51.580;4.578;2022-07-23T05:53:33;102067.38;;;15.93;91.69
69153;BME280;56261;51.580;4.578;2022-07-23T05:55:59;102073.03;;;16.07;91.13
69153;BME280;56261;51.580;4.578;2022-07-23T05:58:25;102079.09;;;16.09;92.14
69153;BME280;56261;51.580;4.578;2022-07-23T06:00:50;102075.44;;;16.33;90.45
69153;BME280;56261;51.580;4.578;2022-07-23T06:03:15;102070.66;;;16.43;89.76
69153;BME280;56261;51.580;4.578;2022-07-23T06:05:41;102072.66;;;16.72;89.74
69153;BME280;56261;51.580;4.578;2022-07-23T06:08:06;102071.34;;;16.91;88.07
69153;BME280;56261;51.580;4.578;2022-07-23T06:10:32;102079.66;;;17.05;87.41
69153;BME280;56261;51.580;4.578;2022-07-23T06:12:57;102068.69;;;17.06;85.59
69153;BME280;56261;51.580;4.578;2022-07-23T06:15:23;102086.06;;;17.04;86.50
69153;BME280;56261;51.580;4.578;2022-07-23T06:17:48;102073.56;;;16.88;86.62
69153;BME280;56261;51.580;4.578;2022-07-23T06:20:14;102073.66;;;17.17;85.93
69153;BME280;56261;51.580;4.578;2022-07-23T06:22:39;102088.72;;;16.89;85.61
69153;BME280;56261;51.580;4.578;2022-07-23T06:25:06;102082.00;;;16.62;86.03
69153;BME280;56261;51.580;4.578;2022-07-23T06:27:31;102066.91;;;16.98;86.46
69153;BME280;56261;51.580;4.578;2022-07-23T06:29:57;102057.75;;;17.22;86.20
69153;BME280;56261;51.580;4.578;2022-07-23T06:32:22;102069.31;;;17.76;82.86
69153;BME280;56261;51.580;4.578;2022-07-23T06:34:47;102068.06;;;18.08;81.40
69153;BME280;56261;51.580;4.578;2022-07-23T06:37:13;102077.59;;;18.62;82.96
69153;BME280;56261;51.580;4.578;2022-07-23T06:39:38;102079.97;;;19.43;75.42
69153;BME280;56261;51.580;4.578;2022-07-23T06:42:04;102065.34;;;19.65;73.99
69153;BME280;56261;51.580;4.578;2022-07-23T06:44:29;102072.69;;;19.72;74.12
69153;BME280;56261;51.580;4.578;2022-07-23T06:46:55;102062.03;;;20.18;72.33
69153;BME280;56261;51.580;4.578;2022-07-23T06:49:20;102065.88;;;20.44;69.48
69153;BME280;56261;51.580;4.578;2022-07-23T06:51:46;102063.88;;;20.86;69.94
69153;BME280;56261;51.580;4.578;2022-07-23T06:54:11;102065.94;;;21.17;67.40
69153;BME280;56261;51.580;4.578;2022-07-23T06:56:37;102061.34;;;20.98;66.80
69153;BME280;56261;51.580;4.578;2022-07-23T06:59:02;102056.75;;;20.85;66.09
69153;BME280;56261;51.580;4.578;2022-07-23T07:01:28;102062.19;;;20.98;65.68
69153;BME280;56261;51.580;4.578;2022-07-23T07:03:54;102065.75;;;20.04;67.40
69153;BME280;56261;51.580;4.578;2022-07-23T07:06:19;102065.94;;;21.10;66.07
69153;BME280;56261;51.580;4.578;2022-07-23T07:08:44;102066.88;;;20.43;66.13
69153;BME280;56261;51.580;4.578;2022-07-23T07:11:10;102072.63;;;21.14;65.09
69153;BME280;56261;51.580;4.578;2022-07-23T07:13:37;102063.13;;;21.77;63.08
69153;BME280;56261;51.580;4.578;2022-07-23T07:16:02;102074.22;;;22.27;60.92
69153;BME280;56261;51.580;4.578;2022-07-23T07:18:28;102067.75;;;21.56;61.03
69153;BME280;56261;51.580;4.578;2022-07-23T07:20:53;102062.41;;;22.02;59.42
69153;BME280;56261;51.580;4.578;2022-07-23T07:23:19;102062.50;;;21.75;59.74
69153;BME280;56261;51.580;4.578;2022-07-23T07:25:46;102066.06;;;21.75;59.60
69153;BME280;56261;51.580;4.578;2022-07-23T07:28:12;102065.50;;;22.50;60.62
69153;BME280;56261;51.580;4.578;2022-07-23T07:30:38;102064.59;;;22.88;57.02
69153;BME280;56261;51.580;4.578;2022-07-23T07:33:03;102072.94;;;22.93;57.47
69153;BME280;56261;51.580;4.578;2022-07-23T07:35:29;102069.19;;;22.63;57.19
69153;BME280;56261;51.580;4.578;2022-07-23T07:37:54;102062.59;;;22.07;59.76
69153;BME280;56261;51.580;4.578;2022-07-23T07:40:20;102075.66;;;22.62;57.20
69153;BME280;56261;51.580;4.578;2022-07-23T07:42:47;102074.09;;;23.29;57.03
69153;BME280;56261;51.580;4.578;2022-07-23T07:45:13;102076.13;;;23.15;57.72
69153;BME280;56261;51.580;4.578;2022-07-23T07:47:38;102065.81;;;23.79;54.86
69153;BME280;56261;51.580;4.578;2022-07-23T07:50:04;102074.09;;;23.91;54.85
69153;BME280;56261;51.580;4.578;2022-07-23T07:52:29;102081.53;;;24.14;53.10
69153;BME280;56261;51.580;4.578;2022-07-23T07:54:55;102074.03;;;23.54;54.63
69153;BME280;56261;51.580;4.578;2022-07-23T07:57:20;102084.16;;;23.04;56.44
69153;BME280;56261;51.580;4.578;2022-07-23T07:59:45;102089.69;;;23.22;52.79
69153;BME280;56261;51.580;4.578;2022-07-23T08:02:11;102089.31;;;23.80;53.68
69153;BME280;56261;51.580;4.578;2022-07-23T08:04:38;102104.63;;;23.93;49.97
69153;BME280;56261;51.580;4.578;2022-07-23T08:07:03;102103.19;;;23.54;51.06
69153;BME280;56261;51.580;4.578;2022-07-23T08:09:28;102107.53;;;23.98;51.64
69153;BME280;56261;51.580;4.578;2022-07-23T08:11:54;102106.16;;;24.08;53.28
69153;BME280;56261;51.580;4.578;2022-07-23T08:14:19;102102.59;;;24.07;52.02
69153;BME280;56261;51.580;4.578;2022-07-23T08:16:45;102096.16;;;24.01;52.63
69153;BME280;56261;51.580;4.578;2022-07-23T08:19:10;102100.94;;;24.06;51.49
69153;BME280;56261;51.580;4.578;2022-07-23T08:21:35;102101.56;;;24.80;47.80
69153;BME280;56261;51.580;4.578;2022-07-23T08:24:01;102088.53;;;24.82;49.48
69153;BME280;56261;51.580;4.578;2022-07-23T08:26:26;102091.81;;;24.42;51.08
69153;BME280;56261;51.580;4.578;2022-07-23T08:28:52;102089.06;;;25.15;48.23
69153;BME280;56261;51.580;4.578;2022-07-23T08:31:18;102092.91;;;24.72;50.34
69153;BME280;56261;51.580;4.578;2022-07-23T08:33:44;102097.13;;;25.92;48.46
69153;BME280;56261;51.580;4.578;2022-07-23T08:36:09;102099.34;;;24.89;47.89
69153;BME280;56261;51.580;4.578;2022-07-23T08:38:35;102083.03;;;25.48;47.10
69153;BME280;56261;51.580;4.578;2022-07-23T08:41:01;102088.22;;;23.81;50.09
69153;BME280;56261;51.580;4.578;2022-07-23T08:43:29;102091.16;;;24.17;51.99
69153;BME280;56261;51.580;4.578;2022-07-23T08:45:56;102083.38;;;25.40;48.45
69153;BME280;56261;51.580;4.578;2022-07-23T08:48:24;102088.34;;;23.50;50.67
69153;BME280;56261;51.580;4.578;2022-07-23T08:50:51;102093.81;;;24.05;52.11
69153;BME280;56261;51.580;4.578;2022-07-23T08:53:18;102095.88;;;23.91;53.35
69153;BME280;56261;51.580;4.578;2022-07-23T08:55:50;102087.38;;;25.02;47.08
69153;BME280;56261;51.580;4.578;2022-07-23T08:58:16;102088.00;;;25.51;48.45
69153;BME280;56261;51.580;4.578;2022-07-23T09:00:42;102089.38;;;25.77;46.75
69153;BME280;56261;51.580;4.578;2022-07-23T09:03:31;102091.41;;;25.82;47.00
69153;BME280;56261;51.580;4.578;2022-07-23T09:05:58;102101.41;;;25.88;46.96
69153;BME280;56261;51.580;4.578;2022-07-23T09:08:27;102099.38;;;25.72;47.99
69153;BME280;56261;51.580;4.578;2022-07-23T09:11:02;102098.63;;;24.94;48.65
69153;BME280;56261;51.580;4.578;2022-07-23T09:15:55;102104.94;;;25.06;46.22
69153;BME280;56261;51.580;4.578;2022-07-23T09:18:40;102092.81;;;25.84;45.78
69153;BME280;56261;51.580;4.578;2022-07-23T09:21:07;102098.03;;;25.98;45.45
69153;BME280;56261;51.580;4.578;2022-07-23T09:23:41;102092.22;;;25.82;46.59
69153;BME280;56261;51.580;4.578;2022-07-23T09:26:40;102095.28;;;24.80;48.93
69153;BME280;56261;51.580;4.578;2022-07-23T09:34:27;102099.69;;;24.81;49.36
69153;BME280;56261;51.580;4.578;2022-07-23T09:36:58;102103.59;;;24.73;49.51
69153;BME280;56261;51.580;4.578;2022-07-23T09:39:33;102099.38;;;25.01;49.54
69153;BME280;56261;51.580;4.578;2022-07-23T09:42:20;102099.66;;;24.69;49.44
69153;BME280;56261;51.580;4.578;2022-07-23T09:44:48;102093.91;;;25.72;48.38
69153;BME280;56261;51.580;4.578;2022-07-23T09:47:14;102089.78;;;26.09;44.45
69153;BME280;56261;51.580;4.578;2022-07-23T09:49:58;102098.56;;;26.23;48.16
69153;BME280;56261;51.580;4.578;2022-07-23T09:52:33;102103.72;;;26.08;46.03
69153;BME280;56261;51.580;4.578;2022-07-23T09:55:00;102090.97;;;26.14;44.90
69153;BME280;56261;51.580;4.578;2022-07-23T09:57:27;102092.72;;;26.48;43.74
69153;BME280;56261;51.580;4.578;2022-07-23T09:59:52;102097.13;;;25.45;47.45
69153;BME280;56261;51.580;4.578;2022-07-23T10:02:23;102089.31;;;25.48;48.44
69153;BME280;56261;51.580;4.578;2022-07-23T10:04:53;102101.41;;;25.17;48.82
69153;BME280;56261;51.580;4.578;2022-07-23T10:07:21;102100.69;;;25.10;49.02
69153;BME280;56261;51.580;4.578;2022-07-23T10:09:48;102105.66;;;25.13;49.02
69153;BME280;56261;51.580;4.578;2022-07-23T10:12:15;102099.28;;;24.54;49.12
69153;BME280;56261;51.580;4.578;2022-07-23T10:14:41;102095.19;;;24.86;51.24
69153;BME280;56261;51.580;4.578;2022-07-23T10:17:07;102095.13;;;25.17;48.50
69153;BME280;56261;51.580;4.578;2022-07-23T10:19:33;102096.81;;;24.76;51.83
69153;BME280;56261;51.580;4.578;2022-07-23T10:22:06;102091.91;;;24.96;48.95
69153;BME280;56261;51.580;4.578;2022-07-23T10:24:49;102099.03;;;24.55;50.00
69153;BME280;56261;51.580;4.578;2022-07-23T10:27:42;102102.81;;;25.08;50.76
69153;BME280;56261;51.580;4.578;2022-07-23T10:38:57;102106.50;;;24.60;51.11
69153;BME280;56261;51.580;4.578;2022-07-23T10:41:32;102092.53;;;24.38;50.45
69153;BME280;56261;51.580;4.578;2022-07-23T10:44:12;102105.41;;;23.20;52.91
69153;BME280;56261;51.580;4.578;2022-07-23T10:47:01;102106.47;;;23.37;52.05
69153;BME280;56261;51.580;4.578;2022-07-23T10:49:36;102102.78;;;23.94;51.24
69153;BME280;56261;51.580;4.578;2022-07-23T10:54:44;102099.84;;;23.33;52.26
69153;BME280;56261;51.580;4.578;2022-07-23T10:57:11;102098.91;;;22.89;52.81
69153;BME280;56261;51.580;4.578;2022-07-23T11:02:45;102097.09;;;23.08;52.35
69153;BME280;56261;51.580;4.578;2022-07-23T11:05:14;102088.03;;;23.39;53.28
69153;BME280;56261;51.580;4.578;2022-07-23T11:10:35;102089.31;;;23.37;49.35
69153;BME280;56261;51.580;4.578;2022-07-23T11:13:37;102092.13;;;24.04;51.06
69153;BME280;56261;51.580;4.578;2022-07-23T11:16:05;102083.97;;;24.22;51.17
69153;BME280;56261;51.580;4.578;2022-07-23T11:24:12;102086.94;;;24.33;48.91
69153;BME280;56261;51.580;4.578;2022-07-23T11:26:59;102082.06;;;24.53;52.57
69153;BME280;56261;51.580;4.578;2022-07-23T11:31:54;102089.13;;;24.73;47.44
69153;BME280;56261;51.580;4.578;2022-07-23T11:34:33;102081.53;;;24.75;49.29
69153;BME280;56261;51.580;4.578;2022-07-23T11:37:01;102075.59;;;24.78;50.58
69153;BME280;56261;51.580;4.578;2022-07-23T11:39:28;102077.94;;;24.62;48.55
69153;BME280;56261;51.580;4.578;2022-07-23T11:41:55;102079.75;;;24.38;51.89
69153;BME280;56261;51.580;4.578;2022-07-23T11:44:28;102085.31;;;24.13;51.39
69153;BME280;56261;51.580;4.578;2022-07-23T11:46:58;102072.63;;;24.07;50.85
69153;BME280;56261;51.580;4.578;2022-07-23T11:49:25;102077.09;;;23.83;52.62
69153;BME280;56261;51.580;4.578;2022-07-23T11:52:10;102073.22;;;24.39;50.98
69153;BME280;56261;51.580;4.578;2022-07-23T11:54:47;102063.03;;;24.77;49.39
69153;BME280;56261;51.580;4.578;2022-07-23T11:57:13;102065.41;;;25.09;50.09
69153;BME280;56261;51.580;4.578;2022-07-23T11:59:39;102062.69;;;24.85;49.91
69153;BME280;56261;51.580;4.578;2022-07-23T12:02:06;102052.72;;;25.02;51.00
69153;BME280;56261;51.580;4.578;2022-07-23T12:04:44;102065.78;;;25.12;47.64
69153;BME280;56261;51.580;4.578;2022-07-23T12:09:56;102058.56;;;25.30;49.66
69153;BME280;56261;51.580;4.578;2022-07-23T12:12:22;102063.44;;;25.39;46.40
69153;BME280;56261;51.580;4.578;2022-07-23T12:14:56;102067.66;;;25.00;48.53
69153;BME280;56261;51.580;4.578;2022-07-23T12:17:28;102066.97;;;25.04;48.51
69153;BME280;56261;51.580;4.578;2022-07-23T12:19:54;102063.63;;;25.02;45.38
69153;BME280;56261;51.580;4.578;2022-07-23T12:22:22;102066.97;;;25.04;47.94
69153;BME280;56261;51.580;4.578;2022-07-23T12:25:00;102062.81;;;24.78;47.40
69153;BME280;56261;51.580;4.578;2022-07-23T12:27:27;102057.34;;;24.78;47.94
69153;BME280;56261;51.580;4.578;2022-07-23T12:29:53;102060.53;;;24.87;46.70
69153;BME280;56261;51.580;4.578;2022-07-23T12:32:24;102060.06;;;24.78;47.89
69153;BME280;56261;51.580;4.578;2022-07-23T12:35:07;102053.22;;;25.35;45.94
69153;BME280;56261;51.580;4.578;2022-07-23T12:37:36;102051.72;;;25.67;45.69
69153;BME280;56261;51.580;4.578;2022-07-23T12:42:45;102044.69;;;25.72;47.30
69153;BME280;56261;51.580;4.578;2022-07-23T12:45:11;102053.75;;;26.41;46.50
69153;BME280;56261;51.580;4.578;2022-07-23T12:53:14;102048.00;;;25.33;45.97
69153;BME280;56261;51.580;4.578;2022-07-23T12:55:40;102054.88;;;25.24;48.23
69153;BME280;56261;51.580;4.578;2022-07-23T12:58:09;102051.44;;;25.29;47.20
69153;BME280;56261;51.580;4.578;2022-07-23T13:07:01;102044.63;;;25.43;44.30
69153;BME280;56261;51.580;4.578;2022-07-23T13:09:25;102052.97;;;25.13;45.01
69153;BME280;56261;51.580;4.578;2022-07-23T13:11:53;102045.94;;;24.70;46.09
69153;BME280;56261;51.580;4.578;2022-07-23T13:14:19;102040.22;;;24.59;46.44
69153;BME280;56261;51.580;4.578;2022-07-23T13:16:46;102044.41;;;24.97;45.55
69153;BME280;56261;51.580;4.578;2022-07-23T13:19:12;102038.34;;;25.07;44.14
69153;BME280;56261;51.580;4.578;2022-07-23T13:21:39;102034.19;;;24.93;47.94
69153;BME280;56261;51.580;4.578;2022-07-23T13:24:06;102030.28;;;25.00;46.09
69153;BME280;56261;51.580;4.578;2022-07-23T13:26:31;102029.78;;;24.68;48.25
69153;BME280;56261;51.580;4.578;2022-07-23T13:28:57;102037.00;;;24.62;47.05
69153;BME280;56261;51.580;4.578;2022-07-23T13:31:23;102027.75;;;24.63;49.03
69153;BME280;56261;51.580;4.578;2022-07-23T13:33:49;102036.34;;;24.79;46.78
69153;BME280;56261;51.580;4.578;2022-07-23T13:36:15;102035.03;;;24.81;46.12
69153;BME280;56261;51.580;4.578;2022-07-23T13:38:40;102024.75;;;25.19;45.06
69153;BME280;56261;51.580;4.578;2022-07-23T13:41:06;102027.44;;;25.31;46.47